Aérodrome :
LOGIN :

S'inscrire | Disclaimer

   EN    FR    IT 

 










Légende :    VFR   VFR Marginal   IFR   IFR Intensif   IFR Très Intensif
Visi : 
Plafond : 
>= 8 km
>= 3000ft
5 à 8 km
1000 à 3000 ft
1500m à 5 km
500 à 1000 ft
800 à 1500m
200 à 500 ft
< 800m
< 200 ft
Symboles :   Orages  Brouillard  Fortes neiges  Fortes précipitations  Vent > 20 kt
SIGMETs :   Divers  Orages  Givrage  Turbulence  Onde Orograph.  Cendres Volcan.






- Altitude de l'aérodrome : 2945 ft
- Code IATA : RGS


LEBG - Burgos

DERNIER METAR :
  • 180630Z 06006KT 9999 BKN050 15/11 Q1012

METARs EXPIRÉS :
  • 180600Z 03005KT 9999 BKN050 14/10 Q1012
  • 180530Z AUTO 03003KT 010V070 CAVOK 14/10 Q1012
  • 180500Z AUTO 07003KT 030V100 CAVOK 14/09 Q1012
  • 180430Z AUTO 06004KT 020V100 CAVOK 14/10 Q1012
  • 180400Z AUTO VRB02KT CAVOK 14/09 Q1012
  • 180330Z AUTO 04002KT CAVOK 14/10 Q1012
  • 180300Z AUTO VRB02KT CAVOK 14/09 Q1012
  • 180230Z AUTO VRB02KT CAVOK 14/10 Q1012
  • 180200Z AUTO VRB01KT CAVOK 14/09 Q1012

TAF TAF LEBG
Valide du 18 à 03h jusqu'au 19 à 03h UTC


180200Z 1803/1903 20009KT CAVOK TX25/1815Z TN09/1805Z
BECMG 1803/1805 VRB05KT
TEMPO 1810/1818 23013G25KT
PROB30
TEMPO 1813/1816 27013G25KT
PROB30 1816/1821 6000 RA SHRA SCT060TCU
PROB30 1823/1901 SHRA SCT040TCU



MET'MAP, la Météo Aéronautique d'un coup d'oeil ! - Copyright ORBIFLY Décembre 2007 - Disclaimer

ORBIFLY MET'MAP TEAM :

Programmation & Développement : Alexandra Zaïnal
Sur une idée originale de : Baudouin d'Aumeries
Soutien technique & logistique : Manuel Goepfert
Assistance : Marc-Olivier Méhu




SOURCES & CREDITS :

   NOAA